Time;durP1;ratioP1;P1;durP2;ratioP2;P2;SDS_P1;SDS_P2;PMS_P1;PMS_P2;Temp;Humidity;BMP_temperature;BMP_pressure;BME280_temperature;BME280_humidity;BME280_pressure;Samples;Min_cycle;Max_cycle;Signal;HPM_P1;HPM_P2
2022/09/01 00:00:10;;;;;;;16.07;13.90;;;;;;;20.16;83.40;94681.09;5032039;28;20438;-84
2022/09/01 00:02:37;;;;;;;15.63;14.00;;;;;;;20.16;83.95;94681.09;5031768;28;20447;-83
2022/09/01 00:05:06;;;;;;;18.00;14.77;;;;;;;20.13;84.43;94676.16;5032210;28;20442;-83
2022/09/01 00:07:34;;;;;;;18.70;15.70;;;;;;;20.11;85.69;94674.50;5034080;28;20454;-83
2022/09/01 00:10:02;;;;;;;21.30;19.00;;;;;;;20.08;86.78;94674.06;5036149;28;20486;-83
2022/09/01 00:12:29;;;;;;;20.33;17.10;;;;;;;20.09;87.20;94670.38;5036111;28;20450;-82
2022/09/01 00:14:57;;;;;;;21.10;16.53;;;;;;;20.13;87.46;94671.63;5036088;28;20439;-83
2022/09/01 00:17:25;;;;;;;27.57;18.70;;;;;;;20.16;87.24;94671.25;5001486;28;20434;-84
2022/09/01 00:19:52;;;;;;;21.73;18.40;;;;;;;20.16;87.98;94670.44;5036222;28;20450;-83
2022/09/01 00:22:19;;;;;;;21.13;17.90;;;;;;;20.13;87.90;94670.81;5036041;28;20446;-83
2022/09/01 00:24:46;;;;;;;21.20;18.30;;;;;;;20.11;87.48;94671.00;5017238;28;20441;-83
2022/09/01 00:27:13;;;;;;;21.97;18.13;;;;;;;20.12;87.65;94667.34;5036437;28;20438;-83
2022/09/01 00:29:40;;;;;;;19.83;17.83;;;;;;;20.01;87.99;94668.69;5035997;28;20486;-84
2022/09/01 00:32:06;;;;;;;22.33;19.93;;;;;;;19.93;89.06;94655.50;5035885;28;20466;-83
2022/09/01 00:34:35;;;;;;;29.17;20.80;;;;;;;19.84;90.08;94658.50;5035784;28;20450;-83
2022/09/01 00:37:01;;;;;;;22.67;20.17;;;;;;;19.75;91.10;94658.66;5049690;28;20442;-83
2022/09/01 00:39:28;;;;;;;27.73;20.87;;;;;;;19.75;91.47;94655.16;5035522;28;20443;-84
2022/09/01 00:41:58;;;;;;;22.57;19.07;;;;;;;19.68;91.26;94659.63;5035704;28;20945;-83
2022/09/01 00:44:26;;;;;;;21.30;19.00;;;;;;;19.67;91.50;94666.78;5035480;28;20453;-84
2022/09/01 00:46:55;;;;;;;22.67;19.37;;;;;;;19.70;91.85;94655.75;5035760;28;20561;-83
2022/09/01 00:49:28;;;;;;;24.60;19.63;;;;;;;19.68;92.34;94663.09;5035381;28;20540;-85
2022/09/01 00:52:02;;;;;;;19.53;17.30;;;;;;;19.61;90.84;94666.69;5035402;28;21572;-83
2022/09/01 00:54:34;;;;;;;22.97;16.53;;;;;;;19.57;90.36;94674.25;5035369;28;20454;-84
2022/09/01 00:57:02;;;;;;;17.60;15.73;;;;;;;19.56;89.97;94682.41;5035233;28;20518;-83
2022/09/01 00:59:30;;;;;;;17.53;15.40;;;;;;;19.54;89.93;94681.78;5035389;28;20485;-84
2022/09/01 01:01:58;;;;;;;17.20;14.53;;;;;;;19.54;89.46;94685.28;5035440;28;20430;-83
2022/09/01 01:04:25;;;;;;;19.30;15.70;;;;;;;19.50;89.42;94692.78;5035453;28;20450;-83
2022/09/01 01:07:00;;;;;;;18.83;14.30;;;;;;;19.43;89.60;94680.44;5035135;28;20447;-83
2022/09/01 01:09:33;;;;;;;17.30;15.50;;;;;;;19.41;89.88;94693.09;5034928;28;20450;-83
2022/09/01 01:12:02;;;;;;;17.70;15.80;;;;;;;19.37;90.10;94699.78;5035106;28;20825;-83
2022/09/01 01:14:30;;;;;;;19.63;17.53;;;;;;;19.17;91.22;94696.94;5035301;28;20442;-83
2022/09/01 01:16:57;;;;;;;21.70;16.53;;;;;;;19.17;91.37;94697.75;5034751;28;20940;-83
2022/09/01 01:25:11;;;;;;;26.90;20.27;;;;;;;18.87;95.58;94689.00;5034895;28;20940;-83
2022/09/01 01:27:39;;;;;;;22.07;19.63;;;;;;;18.94;95.49;94691.75;5035092;28;20455;-83
2022/09/01 01:30:09;;;;;;;24.47;20.17;;;;;;;19.01;96.03;94702.44;5034420;28;21043;-83
2022/09/01 01:32:36;;;;;;;23.20;19.30;;;;;;;19.09;95.92;94700.53;5034487;28;20478;-83
2022/09/01 01:35:05;;;;;;;21.40;18.07;;;;;;;19.18;95.44;94699.41;5016276;28;20446;-83
2022/09/01 01:37:34;;;;;;;23.97;18.40;;;;;;;19.27;94.71;94702.75;5034760;28;20442;-83
2022/09/01 01:40:01;;;;;;;18.27;16.07;;;;;;;19.32;93.63;94699.53;5034747;28;20813;-83
2022/09/01 01:42:32;;;;;;;16.83;15.03;;;;;;;19.34;93.15;94698.34;5034394;28;20446;-83
2022/09/01 01:44:59;;;;;;;18.23;15.17;;;;;;;19.40;93.02;94702.91;5034462;28;20952;-83
2022/09/01 01:47:25;;;;;;;18.00;16.00;;;;;;;19.41;92.58;94709.91;5034463;28;20593;-83
2022/09/01 01:49:53;;;;;;;22.40;16.20;;;;;;;19.44;92.44;94706.03;5034205;28;20489;-83
2022/09/01 01:52:20;;;;;;;18.83;15.03;;;;;;;19.39;92.40;94706.59;5034550;28;20471;-82
2022/09/01 01:54:46;;;;;;;18.77;16.40;;;;;;;19.40;92.65;94702.09;5034187;28;20450;-82
2022/09/01 01:57:16;;;;;;;21.00;17.20;;;;;;;19.41;92.43;94704.56;5034066;28;20492;-83
2022/09/01 01:59:45;;;;;;;21.37;16.40;;;;;;;19.45;92.37;94705.84;5015471;28;20435;-82
2022/09/01 02:02:12;;;;;;;19.90;15.43;;;;;;;19.40;92.69;94710.09;5033890;28;20447;-82
2022/09/01 02:04:40;;;;;;;21.13;15.60;;;;;;;19.33;92.63;94714.50;5034437;28;20451;-82
2022/09/01 02:07:10;;;;;;;19.70;16.50;;;;;;;19.27;92.49;94718.72;5034205;28;20451;-82
2022/09/01 02:09:39;;;;;;;16.93;15.23;;;;;;;19.24;92.54;94713.78;5033792;28;20442;-82
2022/09/01 02:12:07;;;;;;;19.87;15.77;;;;;;;19.26;92.31;94717.06;5033814;28;20896;-82
2022/09/01 02:14:34;;;;;;;17.70;15.80;;;;;;;19.25;92.39;94712.78;5048013;28;20458;-82
2022/09/01 02:17:05;;;;;;;17.07;14.10;;;;;;;19.26;92.04;94717.06;5033587;28;20447;-83
2022/09/01 02:19:35;;;;;;;17.57;15.70;;;;;;;19.26;91.53;94713.59;5034024;28;20797;-83
2022/09/01 02:22:02;;;;;;;17.83;15.80;;;;;;;19.29;90.90;94714.03;5033548;28;20430;-82
2022/09/01 02:24:30;;;;;;;16.83;14.93;;;;;;;19.27;90.46;94715.25;5033685;28;20447;-82
2022/09/01 02:26:59;;;;;;;17.53;14.90;;;;;;;19.23;89.98;94722.78;5033886;28;20446;-83
2022/09/01 02:29:27;;;;;;;16.47;14.10;;;;;;;19.21;89.97;94708.84;5014865;28;20443;-82
2022/09/01 02:31:55;;;;;;;15.97;14.30;;;;;;;19.21;89.88;94708.00;5033488;28;20526;-82
2022/09/01 02:34:27;;;;;;;19.93;16.20;;;;;;;19.18;89.92;94710.03;5033665;28;20450;-82
2022/09/01 02:36:56;;;;;;;21.53;17.27;;;;;;;19.06;90.07;94714.19;5033360;28;20972;-82
2022/09/01 02:39:25;;;;;;;16.90;15.23;;;;;;;19.05;90.55;94709.88;5033236;28;20455;-82
2022/09/01 02:41:52;;;;;;;17.53;15.50;;;;;;;19.02;90.50;94710.25;5014626;28;20489;-83
2022/09/01 02:44:21;;;;;;;16.40;14.37;;;;;;;18.99;90.57;94702.63;5033181;28;20470;-82
2022/09/01 02:46:49;;;;;;;16.60;15.00;;;;;;;18.98;90.49;94708.16;5033086;28;20875;-82
2022/09/01 02:49:20;;;;;;;18.40;14.23;;;;;;;18.91;90.99;94699.28;5033209;28;20573;-82
2022/09/01 02:51:51;;;;;;;19.80;14.47;;;;;;;18.87;90.46;94696.16;5032907;28;20843;-82
2022/09/01 02:54:18;;;;;;;18.03;16.13;;;;;;;18.82;90.75;94704.69;5032820;28;20451;-82
2022/09/01 02:56:47;;;;;;;15.67;14.07;;;;;;;18.81;90.58;94697.72;5034172;28;20465;-83
2022/09/01 02:59:14;;;;;;;20.60;14.73;;;;;;;18.80;90.43;94695.25;5048132;28;20450;-82
2022/09/01 03:01:43;;;;;;;18.40;14.93;;;;;;;18.81;90.35;94694.25;5034569;28;20451;-82
2022/09/01 03:04:11;;;;;;;16.23;14.53;;;;;;;18.79;90.31;94688.25;5034011;28;20882;-82
2022/09/01 03:06:39;;;;;;;17.17;14.83;;;;;;;18.76;90.26;94704.59;5033995;28;20442;-82
2022/09/01 03:09:09;;;;;;;21.93;15.70;;;;;;;18.76;90.34;94704.59;5034123;28;20536;-83
2022/09/01 03:11:39;;;;;;;17.53;14.77;;;;;;;18.73;90.21;94700.47;5033982;28;20995;-82
2022/09/01 03:14:07;;;;;;;16.43;14.73;;;;;;;18.66;90.83;94704.88;5034227;28;20431;-81
2022/09/01 03:16:35;;;;;;;16.80;14.43;;;;;;;18.67;90.65;94690.56;5034117;28;20435;-82
2022/09/01 03:19:03;;;;;;;16.70;14.90;;;;;;;18.69;90.98;94698.38;5034051;28;20946;-81
2022/09/01 03:21:31;;;;;;;17.17;14.83;;;;;;;18.68;91.41;94688.75;5034041;28;20447;-82
2022/09/01 03:24:00;;;;;;;17.07;15.23;;;;;;;18.67;91.29;94695.91;5034028;28;20991;-82
2022/09/01 03:26:29;;;;;;;18.00;15.17;;;;;;;18.61;91.31;94699.25;5032094;28;20451;-82
2022/09/01 03:28:57;;;;;;;18.17;14.77;;;;;;;18.65;91.01;94703.22;5033529;28;20438;-83
2022/09/01 03:31:26;;;;;;;17.80;15.20;;;;;;;18.60;91.03;94694.97;5033560;28;20490;-84
2022/09/01 03:33:55;;;;;;;16.10;14.47;;;;;;;18.54;91.22;94701.00;5034053;28;20454;-82
2022/09/01 03:36:23;;;;;;;21.13;14.43;;;;;;;18.58;90.98;94692.47;5034020;28;20462;-82
2022/09/01 03:38:51;;;;;;;16.83;14.53;;;;;;;18.60;91.13;94694.13;5034337;28;20454;-81
2022/09/01 03:41:20;;;;;;;17.20;15.23;;;;;;;18.60;91.12;94696.78;5032711;28;20447;-81
2022/09/01 03:43:50;;;;;;;19.27;15.93;;;;;;;18.68;90.82;94700.19;5033356;28;20528;-81
2022/09/01 03:46:21;;;;;;;18.17;16.17;;;;;;;18.71;90.85;94699.00;5033760;28;20462;-81
2022/09/01 03:48:49;;;;;;;19.43;14.27;;;;;;;18.69;90.70;94698.38;5033723;28;20447;-81
2022/09/01 03:51:19;;;;;;;17.63;15.60;;;;;;;18.69;91.00;94703.69;5033797;28;20840;-82
2022/09/01 03:53:46;;;;;;;17.00;13.30;;;;;;;18.73;90.83;94700.47;5033773;28;20492;-80
2022/09/01 03:56:14;;;;;;;17.13;15.20;;;;;;;18.67;90.68;94701.22;5041745;28;20905;-79
2022/09/01 03:58:45;;;;;;;19.77;15.00;;;;;;;18.68;90.58;94707.34;5052443;28;20586;-80
2022/09/01 04:01:15;;;;;;;15.53;13.50;;;;;;;18.63;90.55;94701.75;5052585;28;20492;-80
2022/09/01 04:03:47;;;;;;;16.20;14.00;;;;;;;18.63;90.61;94699.09;5052958;28;20474;-79
2022/09/01 04:06:17;;;;;;;17.10;13.83;;;;;;;18.66;90.47;94701.41;5017567;28;20430;-80
2022/09/01 04:08:45;;;;;;;15.63;14.03;;;;;;;18.63;90.63;94704.44;5052147;28;20438;-80
2022/09/01 04:11:17;;;;;;;20.73;16.77;;;;;;;18.46;91.74;94695.75;5052532;28;20481;-81
2022/09/01 04:13:45;;;;;;;16.83;14.40;;;;;;;18.45;92.09;94702.09;5033861;28;20445;-80
2022/09/01 04:19:25;;;;;;;18.33;16.10;;;;;;;18.08;94.57;94709.09;4972625;28;20431;-80
2022/09/01 04:21:53;;;;;;;28.87;18.27;;;;;;;18.12;94.77;94706.91;4988310;28;20536;-80
2022/09/01 04:24:22;;;;;;;24.60;19.67;;;;;;;18.09;95.63;94707.28;4980575;28;20441;-80
2022/09/01 04:26:49;;;;;;;22.33;18.83;;;;;;;18.07;96.63;94702.16;4973623;28;20524;-81
2022/09/01 04:29:19;;;;;;;23.53;19.00;;;;;;;18.16;97.11;94702.88;4986760;28;20433;-81
2022/09/01 04:31:52;;;;;;;20.70;18.50;;;;;;;18.25;97.00;94704.47;4933326;28;20495;-80
2022/09/01 04:34:19;;;;;;;21.50;18.60;;;;;;;18.31;96.72;94698.44;4978555;28;20891;-81
2022/09/01 04:36:47;;;;;;;25.77;19.17;;;;;;;18.34;96.47;94706.03;4984529;28;20448;-80
2022/09/01 04:39:14;;;;;;;20.63;18.43;;;;;;;18.24;96.97;94710.78;4990056;28;20492;-81
2022/09/01 04:41:45;;;;;;;26.63;20.50;;;;;;;17.97;99.55;94714.03;4989546;28;20445;-82
2022/09/01 04:44:17;;;;;;;27.60;21.53;;;;;;;17.80;100.00;94713.34;4956434;28;20444;-81
2022/09/01 04:53:30;;;;;;;29.77;22.97;;;;;;;17.73;100.00;94707.91;5033815;28;20541;-81
2022/09/01 04:56:03;;;;;;;29.30;22.97;;;;;;;17.75;100.00;94697.94;5036608;28;20443;-80
2022/09/01 04:58:30;;;;;;;31.90;22.03;;;;;;;17.85;100.00;94708.31;5036854;28;20427;-82
2022/09/01 05:00:59;;;;;;;29.03;21.73;;;;;;;17.99;100.00;94706.72;5036606;28;20439;-82
2022/09/01 05:03:26;;;;;;;24.70;21.63;;;;;;;18.04;100.00;94709.66;5036577;28;20484;-82
2022/09/01 05:05:53;;;;;;;27.97;22.03;;;;;;;18.09;100.00;94699.31;5036259;28;20906;-82
2022/09/01 05:08:22;;;;;;;22.43;19.83;;;;;;;18.07;100.00;94698.66;5036309;28;20482;-82
2022/09/01 05:10:54;;;;;;;25.63;20.17;;;;;;;18.27;100.00;94699.81;5037412;28;20627;-82
2022/09/01 05:16:43;;;;;;;24.20;20.00;;;;;;;18.85;100.00;94704.31;5053048;28;20486;-80
2022/09/01 05:19:13;;;;;;;24.50;18.63;;;;;;;19.06;98.37;94697.41;5025954;28;20448;-83
2022/09/01 05:21:40;;;;;;;20.53;18.20;;;;;;;19.14;97.00;94700.78;5049173;28;20454;-83
2022/09/01 05:24:07;;;;;;;27.83;20.33;;;;;;;19.18;96.10;94698.56;5040484;28;20490;-83
2022/09/01 05:26:39;;;;;;;20.87;18.60;;;;;;;19.19;96.64;94698.38;5035993;28;20458;-83
2022/09/01 05:29:12;;;;;;;22.67;19.67;;;;;;;19.25;96.22;94704.78;5041700;28;20533;-83
2022/09/01 05:31:39;;;;;;;27.10;19.77;;;;;;;19.26;96.60;94705.63;5036407;28;20489;-83
2022/09/01 05:34:08;;;;;;;21.53;18.50;;;;;;;19.29;96.60;94706.06;5053806;28;20450;-83
2022/09/01 05:36:36;;;;;;;25.20;19.87;;;;;;;19.21;96.70;94703.53;5048901;28;20537;-83
2022/09/01 05:39:05;;;;;;;27.90;20.30;;;;;;;19.18;96.73;94707.38;5040384;28;20546;-83
2022/09/01 05:41:34;;;;;;;32.70;23.50;;;;;;;19.04;97.39;94718.84;5053978;28;20959;-83
2022/09/01 05:44:06;;;;;;;30.43;22.07;;;;;;;18.97;98.30;94707.31;5054200;28;20460;-83
2022/09/01 05:46:35;;;;;;;33.60;23.07;;;;;;;18.98;98.61;94700.16;5040993;28;20479;-83
2022/09/01 05:49:05;;;;;;;27.00;21.60;;;;;;;18.77;100.00;94706.25;5032295;28;20458;-83
2022/09/01 05:51:33;;;;;;;34.13;22.70;;;;;;;18.76;100.00;94699.28;5034250;28;20482;-83
2022/09/01 05:54:00;;;;;;;40.43;25.57;;;;;;;18.52;100.00;94709.16;5034640;28;20438;-83
2022/09/01 05:56:29;;;;;;;43.63;26.30;;;;;;;18.34;100.00;94695.41;5034427;28;20450;-83
2022/09/01 05:58:58;;;;;;;42.00;25.47;;;;;;;18.50;100.00;94700.56;5033811;28;20438;-83
2022/09/01 06:01:32;;;;;;;51.53;28.47;;;;;;;18.40;100.00;94705.28;5034207;28;20955;-83
2022/09/01 06:04:02;;;;;;;46.10;26.40;;;;;;;18.52;100.00;94695.88;5033623;28;20973;-83
2022/09/01 06:06:36;;;;;;;45.23;27.90;;;;;;;18.64;100.00;94698.09;5033914;28;20801;-83
2022/09/01 06:09:05;;;;;;;38.70;25.10;;;;;;;18.74;100.00;94698.63;5034264;28;20884;-83
2022/09/01 06:11:32;;;;;;;38.30;26.00;;;;;;;18.83;100.00;94694.88;5015169;28;20483;-83
2022/09/01 06:14:00;;;;;;;40.17;26.60;;;;;;;18.96;100.00;94697.69;5034287;28;20451;-83
2022/09/01 06:16:30;;;;;;;36.83;25.60;;;;;;;19.07;100.00;94696.38;5034116;28;20466;-83
2022/09/01 06:18:58;;;;;;;36.47;26.07;;;;;;;19.10;100.00;94690.72;5033782;28;20454;-83
2022/09/01 06:21:27;;;;;;;37.73;26.60;;;;;;;19.18;100.00;94693.25;5014982;28;20443;-83
2022/09/01 06:23:57;;;;;;;35.90;26.10;;;;;;;19.13;100.00;94693.81;5033771;28;20937;-83
2022/09/01 06:26:26;;;;;;;33.50;25.17;;;;;;;19.34;100.00;94693.00;5033820;28;20442;-83
2022/09/01 06:28:54;;;;;;;36.30;25.80;;;;;;;19.62;100.00;94693.13;5033440;28;21000;-83
2022/09/01 06:31:22;;;;;;;45.70;26.50;;;;;;;19.96;99.29;94697.75;5014674;28;20570;-83
2022/09/01 06:33:52;;;;;;;30.40;23.80;;;;;;;20.28;96.46;94704.34;5014923;28;20427;-83
2022/09/01 06:36:20;;;;;;;89.90;35.20;;;;;;;19.87;97.77;94690.06;5033538;28;20454;-83
2022/09/01 06:38:48;;;;;;;40.60;25.80;;;;;;;20.05;97.09;94695.75;5033306;28;20457;-83
2022/09/01 06:41:18;;;;;;;37.13;25.37;;;;;;;20.02;96.57;94698.81;5033055;28;20462;-84
2022/09/01 06:43:45;;;;;;;46.57;26.87;;;;;;;19.77;97.38;94691.22;5033357;28;20454;-83
2022/09/01 06:46:12;;;;;;;40.53;26.83;;;;;;;19.54;98.83;94690.59;5014720;28;20462;-83
2022/09/01 06:48:45;;;;;;;48.57;30.13;;;;;;;19.28;100.00;94683.13;5032995;28;20454;-83
2022/09/01 06:51:15;;;;;;;41.07;27.37;;;;;;;19.38;100.00;94683.66;5032983;28;20458;-83
2022/09/01 06:53:42;;;;;;;44.20;27.60;;;;;;;19.51;100.00;94674.97;5033011;28;20453;-83
2022/09/01 06:56:12;;;;;;;40.97;27.20;;;;;;;19.70;99.96;94676.22;5032903;28;20926;-84
2022/09/01 06:58:40;;;;;;;437.77;80.93;;;;;;;19.77;98.99;94677.91;5032693;28;20450;-83
2022/09/01 07:01:13;;;;;;;52.27;27.17;;;;;;;19.94;98.48;94674.97;5033152;28;20504;-83
2022/09/01 07:03:40;;;;;;;50.50;30.30;;;;;;;20.10;98.48;94688.84;5032895;28;20457;-83
2022/09/01 07:06:08;;;;;;;42.60;29.20;;;;;;;20.25;98.05;94687.94;5032750;28;21008;-83
2022/09/01 07:08:38;;;;;;;53.83;31.30;;;;;;;20.37;97.19;94687.19;5032743;28;20442;-83
2022/09/01 07:11:07;;;;;;;48.87;33.20;;;;;;;20.34;96.71;94687.59;5032750;28;20506;-84
2022/09/01 07:13:35;;;;;;;47.53;31.83;;;;;;;20.45;95.53;94688.91;5032983;28;20446;-84
2022/09/01 07:16:05;;;;;;;46.47;32.50;;;;;;;20.44;95.66;94684.59;5032837;28;20504;-84
2022/09/01 07:18:33;;;;;;;60.50;33.67;;;;;;;20.42;95.69;94694.63;5032534;28;20455;-84
2022/09/01 07:21:06;;;;;;;64.83;34.43;;;;;;;20.56;96.12;94687.56;5032471;28;20443;-84
2022/09/01 07:23:33;;;;;;;45.50;31.00;;;;;;;20.64;95.28;94680.22;5032743;28;20818;-84
2022/09/01 07:26:06;;;;;;;62.30;33.23;;;;;;;20.85;94.86;94681.97;5032575;28;20516;-83
2022/09/01 07:28:33;;;;;;;49.93;34.50;;;;;;;21.21;93.29;94686.22;5032356;28;20508;-84
2022/09/01 07:31:00;;;;;;;49.47;31.87;;;;;;;21.42;90.48;94683.44;5032528;28;20489;-84
2022/09/01 07:33:29;;;;;;;46.70;31.17;;;;;;;21.69;89.71;94684.31;5032448;28;20487;-83
2022/09/01 07:35:56;;;;;;;45.47;31.83;;;;;;;22.01;87.92;94676.53;5032536;28;20450;-84
2022/09/01 07:38:23;;;;;;;46.43;33.03;;;;;;;22.37;86.26;94679.63;5032263;28;20450;-83
2022/09/01 07:40:53;;;;;;;42.73;31.13;;;;;;;22.59;84.74;94685.56;5032224;28;20447;-83
2022/09/01 07:43:23;;;;;;;38.40;31.37;;;;;;;22.92;83.42;94685.50;4998071;28;20556;-84
2022/09/01 07:45:54;;;;;;;45.50;31.27;;;;;;;23.24;81.36;94681.03;5032165;28;20481;-84
2022/09/01 07:48:23;;;;;;;36.43;27.43;;;;;;;23.43;80.33;94682.81;5032364;28;20450;-83
2022/09/01 07:50:51;;;;;;;42.17;27.00;;;;;;;23.75;79.35;94683.69;5032106;28;20539;-84
2022/09/01 07:53:21;;;;;;;35.30;28.20;;;;;;;23.99;78.38;94687.41;5032226;28;20489;-83
2022/09/01 07:55:50;;;;;;;34.80;28.50;;;;;;;24.17;76.56;94693.88;5032156;28;20442;-84
2022/09/01 07:58:18;;;;;;;37.63;28.47;;;;;;;24.34;75.88;94690.47;5032621;28;20453;-84
2022/09/01 08:00:48;;;;;;;33.60;24.70;;;;;;;24.58;75.74;94691.50;5031714;28;20828;-84
2022/09/01 08:03:16;;;;;;;37.13;27.00;;;;;;;24.83;73.72;94690.59;5032183;28;20450;-84
2022/09/01 08:05:43;;;;;;;32.17;24.27;;;;;;;25.04;73.49;94678.63;5032107;28;20813;-84
2022/09/01 08:08:10;;;;;;;35.87;25.40;;;;;;;25.24;71.33;94688.09;5031917;28;20949;-84
2022/09/01 08:10:39;;;;;;;35.07;23.23;;;;;;;25.32;70.78;94689.66;5032110;28;20450;-84
2022/09/01 08:13:06;;;;;;;36.20;24.30;;;;;;;25.51;69.60;94691.28;5031759;28;20555;-84
2022/09/01 08:15:33;;;;;;;31.97;21.47;;;;;;;25.69;68.72;94697.69;5031919;28;20454;-84
2022/09/01 08:18:01;;;;;;;36.97;27.00;;;;;;;25.79;69.27;94684.53;5032022;28;20465;-84
2022/09/01 08:20:29;;;;;;;26.50;22.07;;;;;;;25.88;68.35;94683.97;5032212;28;20435;-84
2022/09/01 08:22:56;;;;;;;26.37;22.27;;;;;;;25.99;67.76;94686.91;5031777;28;20953;-84
2022/09/01 08:25:23;;;;;;;27.10;22.00;;;;;;;26.01;67.91;94682.91;5032064;28;20454;-84
2022/09/01 08:27:49;;;;;;;26.57;21.90;;;;;;;26.30;67.34;94686.59;5032926;28;20961;-84
2022/09/01 08:30:16;;;;;;;28.53;21.40;;;;;;;26.43;65.73;94683.75;5036033;28;20453;-84
2022/09/01 08:32:43;;;;;;;25.40;22.00;;;;;;;26.55;65.63;94681.84;5035679;28;20811;-84
2022/09/01 08:35:14;;;;;;;23.00;20.60;;;;;;;26.72;64.91;94676.59;5035771;28;20471;-84
2022/09/01 08:37:42;;;;;;;24.53;19.93;;;;;;;26.85;64.02;94678.22;5017735;28;20442;-85
2022/09/01 08:40:14;;;;;;;32.67;21.57;;;;;;;27.03;63.46;94678.13;5036113;28;20940;-84
2022/09/01 08:42:53;;;;;;;23.00;19.83;;;;;;;27.22;62.76;94672.59;5035821;28;20517;-84
2022/09/01 08:45:24;;;;;;;23.37;19.23;;;;;;;27.31;62.22;94669.25;5035363;28;20442;-84
2022/09/01 08:47:55;;;;;;;22.40;19.97;;;;;;;27.38;62.65;94659.16;5035777;28;20458;-85
2022/09/01 08:50:23;;;;;;;24.17;19.67;;;;;;;27.43;62.18;94661.13;5035402;28;20945;-84
2022/09/01 08:52:58;;;;;;;21.60;16.80;;;;;;;27.50;61.37;94656.44;5035271;28;20478;-85
2022/09/01 08:55:32;;;;;;;25.80;17.83;;;;;;;27.36;60.23;94655.88;5035352;28;20529;-84
2022/09/01 08:58:03;;;;;;;27.57;20.10;;;;;;;27.08;61.38;94658.53;5033196;28;20840;-85
2022/09/01 09:00:41;;;;;;;24.73;18.13;;;;;;;26.77;62.31;94648.97;5035587;28;20449;-85
2022/09/01 09:03:17;;;;;;;20.90;17.10;;;;;;;26.55;62.18;94654.13;5035331;28;20454;-84
2022/09/01 09:05:59;;;;;;;18.50;16.80;;;;;;;26.43;62.35;94645.25;5035452;28;20465;-84
2022/09/01 09:08:55;;;;;;;24.03;18.20;;;;;;;26.49;62.60;94645.13;5035199;28;20446;-84
2022/09/01 09:11:49;;;;;;;20.17;17.30;;;;;;;26.36;62.46;94634.59;5012676;28;20448;-84
2022/09/01 09:14:33;;;;;;;19.87;16.70;;;;;;;25.99;65.34;94623.19;5012333;28;20489;-84
2022/09/01 09:17:03;;;;;;;19.40;17.27;;;;;;;25.90;65.13;94629.94;5012942;28;20432;-84
2022/09/01 09:19:34;;;;;;;23.40;16.90;;;;;;;25.77;66.79;94624.78;5012730;28;20440;-84
2022/09/01 09:22:06;;;;;;;21.07;17.23;;;;;;;25.68;67.34;94635.03;5012642;28;20442;-85
2022/09/01 09:24:47;;;;;;;28.73;18.00;;;;;;;25.55;65.80;94627.16;4963611;28;20478;-84
2022/09/01 09:27:18;;;;;;;26.37;19.63;;;;;;;25.42;66.15;94627.31;5013105;28;20455;-84
2022/09/01 09:29:47;;;;;;;25.60;17.60;;;;;;;25.37;67.40;94625.31;5012563;28;20502;-84
2022/09/01 09:32:14;;;;;;;23.47;19.53;;;;;;;25.22;66.82;94624.94;4979950;28;20502;-84
2022/09/01 09:34:42;;;;;;;25.37;18.63;;;;;;;25.09;67.55;94623.22;4980064;28;20448;-84
2022/09/01 09:37:29;;;;;;;24.33;18.17;;;;;;;25.04;68.08;94619.56;4980086;28;20447;-84
2022/09/01 09:40:10;;;;;;;23.33;19.20;;;;;;;25.07;67.89;94617.25;4962363;28;20444;-84
2022/09/01 09:42:38;;;;;;;18.83;16.83;;;;;;;25.27;68.34;94619.69;5012371;28;20454;-84
2022/09/01 09:45:13;;;;;;;27.37;16.53;;;;;;;25.57;66.61;94614.31;5012330;28;21219;-84
2022/09/01 09:47:42;;;;;;;20.33;16.60;;;;;;;25.90;65.92;94620.00;5016724;28;20446;-84
2022/09/01 09:50:21;;;;;;;18.37;16.23;;;;;;;26.19;64.79;94609.41;5034226;28;20785;-84
2022/09/01 09:52:51;;;;;;;22.10;15.90;;;;;;;26.34;62.90;94606.28;5034363;28;20532;-84
2022/09/01 09:55:24;;;;;;;21.10;15.13;;;;;;;26.60;62.25;94611.19;5034145;28;20447;-84
2022/09/01 09:57:55;;;;;;;20.13;16.40;;;;;;;26.79;62.06;94606.47;5034062;28;20447;-84
2022/09/01 10:00:23;;;;;;;20.93;16.17;;;;;;;26.95;59.58;94604.91;5034358;28;20442;-84
2022/09/01 10:02:56;;;;;;;16.37;13.87;;;;;;;27.09;58.77;94601.72;5034632;28;20454;-84
2022/09/01 10:05:33;;;;;;;16.90;15.10;;;;;;;27.07;59.87;94601.16;5033843;28;20474;-84
2022/09/01 10:08:02;;;;;;;17.10;15.13;;;;;;;27.09;60.26;94601.72;5034337;28;20454;-84
2022/09/01 10:10:32;;;;;;;19.60;16.37;;;;;;;27.07;60.99;94595.78;5034133;28;20455;-85
2022/09/01 10:12:59;;;;;;;15.60;13.83;;;;;;;27.04;60.16;94590.88;5034054;28;20493;-84
2022/09/01 10:15:29;;;;;;;20.13;15.27;;;;;;;26.84;60.39;94588.53;5033717;28;20846;-84
2022/09/01 10:18:01;;;;;;;16.97;15.27;;;;;;;26.85;60.82;94578.59;5033932;28;20776;-84
2022/09/01 10:20:28;;;;;;;18.90;13.83;;;;;;;26.94;61.03;94587.13;5031898;28;20446;-84
2022/09/01 10:22:56;;;;;;;16.80;15.03;;;;;;;26.98;61.61;94588.28;5033585;28;20462;-85
2022/09/01 10:25:28;;;;;;;20.60;14.30;;;;;;;26.86;59.08;94585.59;5015483;28;20450;-84
2022/09/01 10:28:01;;;;;;;18.47;14.87;;;;;;;26.89;58.98;94584.31;5033488;28;20450;-84
2022/09/01 10:30:30;;;;;;;16.57;14.87;;;;;;;26.76;59.30;94580.03;5033250;28;20446;-84
2022/09/01 10:32:59;;;;;;;16.87;14.50;;;;;;;26.66;60.44;94587.88;5033787;28;20528;-85
2022/09/01 10:35:28;;;;;;;15.90;13.93;;;;;;;26.55;59.25;94586.84;5033498;28;20470;-84
2022/09/01 10:37:57;;;;;;;17.13;15.30;;;;;;;26.49;60.49;94575.16;5033797;28;20984;-84
2022/09/01 10:40:44;;;;;;;24.97;15.17;;;;;;;26.38;60.85;94573.31;5033543;28;20443;-85
2022/09/01 10:43:50;;;;;;;20.13;15.80;;;;;;;26.31;61.62;94582.50;5033400;28;20990;-84
2022/09/01 10:46:45;;;;;;;19.40;16.23;;;;;;;26.17;61.94;94576.53;4945790;28;20460;-84
2022/09/01 10:49:22;;;;;;;17.80;15.20;;;;;;;26.15;62.21;94570.59;4972043;28;20537;-84
2022/09/01 10:51:49;;;;;;;18.87;15.30;;;;;;;26.08;61.71;94567.19;4971406;28;20595;-85
2022/09/01 10:54:57;;;;;;;23.87;17.00;;;;;;;26.08;61.43;94556.44;4923841;28;20503;-85
2022/09/01 10:57:41;;;;;;;23.57;16.07;;;;;;;26.07;62.04;94557.50;4971895;28;20461;-85
2022/09/01 11:00:44;;;;;;;25.50;15.17;;;;;;;26.19;62.30;94563.69;4955776;28;20548;-84
2022/09/01 11:03:51;;;;;;;26.37;15.60;;;;;;;26.42;61.86;94552.94;4973619;28;20488;-84
2022/09/01 11:07:03;;;;;;;16.80;15.07;;;;;;;26.69;60.34;94549.72;4914599;29;20460;-85
2022/09/01 11:09:34;;;;;;;18.40;14.60;;;;;;;26.84;59.70;94553.53;4895682;29;20453;-85
2022/09/01 11:12:40;;;;;;;15.43;13.80;;;;;;;27.03;60.78;94550.69;4895445;29;20441;-85
2022/09/01 11:15:34;;;;;;;16.10;13.53;;;;;;;27.09;57.93;94547.84;4876604;29;20453;-85
2022/09/01 11:18:02;;;;;;;16.63;13.80;;;;;;;27.14;58.11;94539.03;4876782;29;20528;-85
2022/09/01 11:20:32;;;;;;;14.77;13.17;;;;;;;27.26;57.45;94547.91;4876494;29;20851;-85
2022/09/01 11:23:02;;;;;;;15.33;13.70;;;;;;;27.24;58.17;94544.66;4876465;29;20454;-85
2022/09/01 11:25:37;;;;;;;20.10;14.53;;;;;;;27.24;58.90;94535.75;4876626;29;20463;-84
2022/09/01 11:28:26;;;;;;;16.97;13.40;;;;;;;27.18;59.28;94532.16;4876449;29;20825;-84
2022/09/01 11:30:59;;;;;;;19.83;14.67;;;;;;;27.10;60.09;94525.25;4876133;29;20485;-84
2022/09/01 11:33:38;;;;;;;22.10;15.80;;;;;;;27.13;59.32;94522.06;4876351;29;20481;-85
2022/09/01 11:36:12;;;;;;;14.53;13.10;;;;;;;27.13;60.50;94522.06;4876352;29;20449;-85
2022/09/01 11:38:50;;;;;;;18.70;14.97;;;;;;;27.13;59.60;94519.38;4876367;29;20461;-85
2022/09/01 11:41:32;;;;;;;19.93;13.57;;;;;;;27.22;59.47;94519.81;4892744;29;20541;-85
2022/09/01 11:44:01;;;;;;;17.73;14.90;;;;;;;27.23;59.72;94512.56;4965059;28;20970;-84
2022/09/01 11:46:33;;;;;;;18.07;14.43;;;;;;;27.27;59.93;94508.31;4990465;28;20498;-85
2022/09/01 11:49:06;;;;;;;17.30;15.60;;;;;;;27.37;59.57;94495.00;4990749;28;20540;-85
2022/09/01 11:51:42;;;;;;;20.60;15.03;;;;;;;27.54;58.85;94503.13;5002633;28;20438;-85